createdAt,value
2019-02-02T00:00:57.439Z,0
2019-02-02T00:01:58.263Z,0
2019-02-02T00:02:58.674Z,0
2019-02-02T00:03:58.919Z,0
2019-02-02T00:04:59.612Z,0
2019-02-02T00:06:00.025Z,0
2019-02-02T00:07:00.157Z,0
2019-02-02T00:08:01.297Z,0
2019-02-02T00:09:02.399Z,0
2019-02-02T00:10:02.964Z,0
2019-02-02T00:11:03.369Z,0
2019-02-02T00:12:05.194Z,0
2019-02-02T00:13:04.605Z,0
2019-02-02T00:14:05.124Z,0
2019-02-02T00:15:07.094Z,0
2019-02-02T00:16:08.338Z,0
2019-02-02T00:17:08.027Z,0
2019-02-02T00:18:08.870Z,0
2019-02-02T00:19:08.691Z,0
2019-02-02T00:20:09.404Z,0
2019-02-02T00:21:10.094Z,0
2019-02-02T00:22:10.506Z,0
2019-02-02T00:23:10.914Z,0
2019-02-02T00:24:12.323Z,0
2019-02-02T00:25:14.009Z,0
2019-02-02T00:26:14.427Z,0
2019-02-02T00:27:15.115Z,0
2019-02-02T00:28:15.800Z,0
2019-02-02T00:29:16.903Z,0
2019-02-02T00:30:16.591Z,0
2019-02-02T00:31:16.717Z,0
2019-02-02T00:32:18.126Z,0
2019-02-02T00:33:19.120Z,0
2019-02-02T00:34:19.086Z,0
2019-02-02T00:35:19.892Z,0
2019-02-02T00:36:21.150Z,0
2019-02-02T00:37:20.283Z,0
2019-02-02T00:38:22.037Z,0
2019-02-02T00:39:22.861Z,0
2019-02-02T00:40:23.962Z,0
2019-02-02T00:41:24.384Z,0
2019-02-02T00:42:24.595Z,0
2019-02-02T00:43:25.398Z,0
2019-02-02T00:44:26.089Z,0
2019-02-02T00:45:27.335Z,0
2019-02-02T00:46:27.745Z,0
2019-02-02T00:47:28.433Z,0
2019-02-02T00:48:29.415Z,0
2019-02-02T00:49:29.542Z,0
2019-02-02T00:50:29.673Z,0
2019-02-02T00:51:30.371Z,0
2019-02-02T00:52:31.124Z,0
2019-02-02T00:53:31.815Z,0
2019-02-02T00:54:32.904Z,0
2019-02-02T00:55:33.590Z,0
2019-02-02T00:56:34.010Z,0
2019-02-02T00:57:34.799Z,0
2019-02-02T00:58:35.766Z,0
2019-02-02T00:59:36.172Z,0
2019-02-02T01:00:36.993Z,0
2019-02-02T01:01:37.970Z,0
2019-02-02T01:02:37.934Z,0
2019-02-02T01:03:38.644Z,0
2019-02-02T01:04:39.055Z,0
2019-02-02T01:05:40.025Z,0
2019-02-02T01:06:40.166Z,0
2019-02-02T01:07:41.873Z,0
2019-02-02T01:08:43.134Z,0
2019-02-02T01:09:43.697Z,0
2019-02-02T01:10:45.107Z,0
2019-02-02T01:11:57.832Z,0
2019-02-02T01:12:58.208Z,0
2019-02-02T01:13:59.170Z,0
2019-02-02T01:15:00.411Z,0
2019-02-02T01:15:59.931Z,0
2019-02-02T01:17:00.629Z,0
2019-02-02T01:18:01.941Z,0
2019-02-02T01:19:02.348Z,0
2019-02-02T01:20:03.310Z,0
2019-02-02T01:21:03.439Z,0
2019-02-02T01:22:04.566Z,0
2019-02-02T01:23:05.721Z,0
2019-02-02T01:24:06.411Z,0
2019-02-02T01:25:07.097Z,0
2019-02-02T01:26:07.787Z,0
2019-02-02T01:27:08.567Z,0
2019-02-02T01:28:08.811Z,0
2019-02-02T01:29:09.220Z,0
2019-02-02T01:30:10.537Z,0
2019-02-02T01:31:11.220Z,0
2019-02-02T01:32:15.270Z,0
2019-02-02T01:33:12.543Z,0
2019-02-02T01:34:13.505Z,0
2019-02-02T01:35:14.745Z,0
2019-02-02T01:36:15.156Z,0
2019-02-02T01:37:15.890Z,0
2019-02-02T01:38:17.127Z,0
2019-02-02T01:39:17.385Z,0
2019-02-02T01:40:18.764Z,0
2019-02-02T01:41:19.446Z,0
2019-02-02T01:42:20.182Z,0
2019-02-02T01:43:21.021Z,0
2019-02-02T01:44:21.718Z,0
2019-02-02T01:45:23.065Z,0
2019-02-02T01:46:23.483Z,0
2019-02-02T01:47:23.722Z,0
2019-02-02T01:48:24.131Z,0
2019-02-02T01:49:24.941Z,0
2019-02-02T01:50:25.963Z,0
2019-02-02T01:51:25.926Z,0
2019-02-02T01:52:26.615Z,0
2019-02-02T01:53:27.319Z,0
2019-02-02T01:54:27.726Z,0
2019-02-02T01:55:29.139Z,0
2019-02-02T01:56:29.827Z,0
2019-02-02T01:57:31.066Z,0
2019-02-02T01:58:31.470Z,0
2019-02-02T01:59:33.436Z,0
2019-02-02T02:00:34.401Z,0
2019-02-02T02:01:35.085Z,0
2019-02-02T02:02:35.346Z,0
2019-02-02T02:03:36.749Z,0
2019-02-02T02:04:37.154Z,0
2019-02-02T02:05:38.901Z,0
2019-02-02T02:06:39.315Z,0
2019-02-02T02:07:39.441Z,0
2019-02-02T02:08:39.880Z,0
2019-02-02T02:09:41.323Z,0
2019-02-02T02:10:42.005Z,0
2019-02-02T02:11:43.078Z,0
2019-02-02T02:12:43.763Z,0
2019-02-02T02:13:45.014Z,0
2019-02-02T02:14:45.701Z,0
2019-02-02T02:15:46.664Z,0
2019-02-02T02:16:46.795Z,0
2019-02-02T02:17:48.478Z,0
2019-02-02T02:18:49.441Z,0
2019-02-02T02:19:50.131Z,0
2019-02-02T02:20:50.823Z,0
2019-02-02T02:21:51.509Z,0
2019-02-02T02:22:51.636Z,0
2019-02-02T02:23:52.749Z,0
2019-02-02T02:24:53.714Z,0
2019-02-02T02:25:54.394Z,0
2019-02-02T02:26:55.359Z,0
2019-02-02T02:27:55.767Z,0
2019-02-02T02:28:56.726Z,0
2019-02-02T02:29:57.136Z,0
2019-02-02T02:30:57.365Z,0
2019-02-02T02:31:59.395Z,0
2019-02-02T02:33:00.217Z,0
2019-02-02T02:33:59.641Z,0
2019-02-02T02:35:00.088Z,0
2019-02-02T02:36:00.555Z,0
2019-02-02T02:37:01.945Z,0
2019-02-02T02:38:02.316Z,0
2019-02-02T02:39:03.304Z,0
2019-02-02T02:40:04.568Z,0
2019-02-02T02:41:05.095Z,0
2019-02-02T02:42:05.514Z,0
2019-02-02T02:43:06.791Z,0
2019-02-02T02:44:07.961Z,0
2019-02-02T02:45:08.780Z,0
2019-02-02T02:46:10.589Z,0
2019-02-02T02:47:10.658Z,0
2019-02-02T02:48:12.028Z,0
2019-02-02T02:49:12.459Z,0
2019-02-02T02:50:12.902Z,0
2019-02-02T02:51:14.713Z,0
2019-02-02T02:52:14.421Z,0
2019-02-02T02:53:15.664Z,0
2019-02-02T02:54:16.423Z,0
2019-02-02T02:55:17.571Z,0
2019-02-02T02:56:17.548Z,0
2019-02-02T02:57:18.404Z,0
2019-02-02T02:58:18.810Z,0
2019-02-02T02:59:20.183Z,0
2019-02-02T03:00:20.926Z,0
2019-02-02T03:01:22.296Z,0
2019-02-02T03:02:22.867Z,0
2019-02-02T03:03:23.124Z,0
2019-02-02T03:04:23.551Z,0
2019-02-02T03:05:24.520Z,0
2019-02-02T03:06:25.493Z,0
2019-02-02T03:07:26.197Z,0
2019-02-02T03:08:27.724Z,0
2019-02-02T03:09:27.976Z,0
2019-02-02T03:10:29.258Z,0
2019-02-02T03:11:30.500Z,0
2019-02-02T03:12:31.025Z,0
2019-02-02T03:13:30.918Z,0
2019-02-02T03:14:32.515Z,0
2019-02-02T03:15:33.200Z,0
2019-02-02T03:16:34.446Z,0
2019-02-02T03:17:34.686Z,0
2019-02-02T03:18:34.757Z,0
2019-02-02T03:19:35.724Z,0
2019-02-02T03:20:36.686Z,0
2019-02-02T03:21:37.373Z,0
2019-02-02T03:22:38.104Z,0
2019-02-02T03:23:39.387Z,0
2019-02-02T03:24:39.357Z,0
2019-02-02T03:25:40.059Z,0
2019-02-02T03:26:40.258Z,0
2019-02-02T03:27:40.989Z,0
2019-02-02T03:28:55.497Z,0
2019-02-02T03:29:54.144Z,0
2019-02-02T03:30:55.531Z,0
2019-02-02T03:31:56.917Z,0
2019-02-02T03:32:57.759Z,0
2019-02-02T03:33:58.313Z,0
2019-02-02T03:34:59.278Z,0
2019-02-02T03:36:00.521Z,0
2019-02-02T03:37:01.075Z,0
2019-02-02T03:38:01.811Z,0
2019-02-02T03:39:02.655Z,0
2019-02-02T03:40:03.627Z,0
2019-02-02T03:41:05.493Z,0
2019-02-02T03:42:04.913Z,0
2019-02-02T03:43:06.782Z,0
2019-02-02T03:44:07.500Z,0
2019-02-02T03:45:08.997Z,0
2019-02-02T03:46:08.700Z,0
2019-02-02T03:47:09.941Z,0
2019-02-02T03:48:10.354Z,0
2019-02-02T03:49:11.337Z,0
2019-02-02T03:50:12.897Z,0
2019-02-02T03:51:13.316Z,0
2019-02-02T03:52:13.741Z,0
2019-02-02T03:53:14.432Z,0
2019-02-02T03:54:15.120Z,0
2019-02-02T03:55:16.376Z,0
2019-02-02T03:56:17.067Z,0
2019-02-02T03:57:17.323Z,0
2019-02-02T03:58:18.567Z,0
2019-02-02T03:59:18.981Z,0
2019-02-02T04:00:20.918Z,0
2019-02-02T04:01:20.734Z,0
2019-02-02T04:02:21.142Z,0
2019-02-02T04:03:21.838Z,0
2019-02-02T04:04:21.971Z,0
2019-02-02T04:05:23.210Z,0
2019-02-02T04:06:23.780Z,0
2019-02-02T04:07:24.194Z,0
2019-02-02T04:08:24.882Z,0
2019-02-02T04:09:25.291Z,0
2019-02-02T04:10:26.134Z,0
2019-02-02T04:11:27.418Z,0
2019-02-02T04:12:28.250Z,0
2019-02-02T04:13:29.257Z,0
2019-02-02T04:14:30.221Z,0
2019-02-02T04:15:30.647Z,0
2019-02-02T04:16:31.610Z,0
2019-02-02T04:17:31.740Z,0
2019-02-02T04:18:33.982Z,0
2019-02-02T04:19:33.117Z,0
2019-02-02T04:20:33.754Z,0
2019-02-02T04:21:34.722Z,0
2019-02-02T04:22:38.149Z,0
2019-02-02T04:23:39.113Z,0
2019-02-02T04:24:39.519Z,0
2019-02-02T04:25:40.032Z,0
2019-02-02T04:26:40.457Z,0
2019-02-02T04:27:42.220Z,0
2019-02-02T04:28:43.463Z,0
2019-02-02T04:29:42.879Z,0
2019-02-02T04:30:43.691Z,0
2019-02-02T04:31:44.111Z,0
2019-02-02T04:32:44.875Z,0
2019-02-02T04:33:46.463Z,0
2019-02-02T04:34:46.426Z,0
2019-02-02T04:35:46.835Z,0
2019-02-02T04:36:47.800Z,0
2019-02-02T04:37:48.488Z,0
2019-02-02T04:38:49.732Z,0
2019-02-02T04:39:50.419Z,0
2019-02-02T04:40:51.542Z,0
2019-02-02T04:41:52.503Z,0
2019-02-02T04:42:53.229Z,0
2019-02-02T04:43:54.198Z,0
2019-02-02T04:44:55.163Z,0
2019-02-02T04:45:55.294Z,0
2019-02-02T04:46:56.426Z,0
2019-02-02T04:47:57.834Z,0
2019-02-02T04:48:58.889Z,0
2019-02-02T04:49:59.851Z,0
2019-02-02T04:51:00.304Z,0
2019-02-02T04:52:01.005Z,0
2019-02-02T04:53:02.813Z,0
2019-02-02T04:54:02.237Z,0
2019-02-02T04:55:02.941Z,0
2019-02-02T04:56:03.930Z,0
2019-02-02T04:57:04.963Z,0
2019-02-02T04:58:06.207Z,0
2019-02-02T04:59:06.750Z,0
2019-02-02T05:00:06.872Z,0
2019-02-02T05:01:07.995Z,0
2019-02-02T05:02:08.128Z,0
2019-02-02T05:03:08.887Z,0
2019-02-02T05:04:09.850Z,0
2019-02-02T05:05:09.985Z,0
2019-02-02T05:06:11.392Z,0
2019-02-02T05:07:11.921Z,0
2019-02-02T05:08:12.881Z,0
2019-02-02T05:09:13.290Z,0
2019-02-02T05:10:13.974Z,0
2019-02-02T05:11:14.147Z,0
2019-02-02T05:12:14.841Z,0
2019-02-02T05:13:15.250Z,0
2019-02-02T05:14:15.655Z,0
2019-02-02T05:15:16.117Z,0
2019-02-02T05:16:16.804Z,0
2019-02-02T05:17:18.044Z,0
2019-02-02T05:18:18.173Z,0
2019-02-02T05:19:19.137Z,0
2019-02-02T05:20:19.954Z,0
2019-02-02T05:21:20.773Z,0
2019-02-02T05:22:21.457Z,0
2019-02-02T05:23:21.589Z,0
2019-02-02T05:24:22.995Z,0
2019-02-02T05:25:23.765Z,0
2019-02-02T05:26:24.189Z,0
2019-02-02T05:27:25.154Z,0
2019-02-02T05:28:26.400Z,0
2019-02-02T05:29:27.374Z,0
2019-02-02T05:30:28.068Z,0
2019-02-02T05:31:28.603Z,0
2019-02-02T05:32:29.127Z,0
2019-02-02T05:33:29.258Z,0
2019-02-02T05:34:31.222Z,0
2019-02-02T05:35:30.903Z,0
2019-02-02T05:36:31.132Z,0
2019-02-02T05:37:31.261Z,0
2019-02-02T05:38:32.670Z,0
2019-02-02T05:39:33.642Z,0
2019-02-02T05:40:33.889Z,0
2019-02-02T05:41:33.993Z,0
2019-02-02T05:42:34.457Z,0
2019-02-02T05:43:35.143Z,0
2019-02-02T05:44:35.827Z,0
2019-02-02T05:45:36.512Z,0
2019-02-02T05:46:37.754Z,0
2019-02-02T05:47:38.503Z,0
2019-02-02T05:48:39.017Z,0
2019-02-02T05:49:39.150Z,0
2019-02-02T05:50:41.115Z,0
2019-02-02T05:51:41.251Z,0
2019-02-02T05:52:41.933Z,0
2019-02-02T05:53:42.342Z,0
2019-02-02T05:54:44.303Z,0
2019-02-02T05:55:43.719Z,0
2019-02-02T05:56:44.752Z,0
2019-02-02T05:57:45.254Z,0
2019-02-02T05:58:45.936Z,0
2019-02-02T05:59:59.377Z,0
2019-02-02T06:01:00.223Z,0
2019-02-02T06:02:01.359Z,0
2019-02-02T06:03:03.322Z,0
2019-02-02T06:04:03.288Z,0
2019-02-02T06:05:04.972Z,0
2019-02-02T06:06:06.230Z,0
2019-02-02T06:07:06.637Z,0
2019-02-02T06:08:07.043Z,0
2019-02-02T06:09:07.563Z,0
2019-02-02T06:10:08.259Z,0
2019-02-02T06:11:09.675Z,0
2019-02-02T06:12:11.299Z,0
2019-02-02T06:13:10.430Z,0
2019-02-02T06:14:11.630Z,0
2019-02-02T06:15:12.037Z,0
2019-02-02T06:16:12.196Z,0
2019-02-02T06:17:13.324Z,0
2019-02-02T06:18:14.735Z,0
2019-02-02T06:19:15.145Z,0
2019-02-02T06:20:16.392Z,0
2019-02-02T06:21:16.839Z,0
2019-02-02T06:22:17.806Z,0
2019-02-02T06:23:18.216Z,0
2019-02-02T06:24:18.624Z,0
2019-02-02T06:25:21.095Z,0
2019-02-02T06:26:20.530Z,0
2019-02-02T06:27:21.216Z,0
2019-02-02T06:28:21.349Z,0
2019-02-02T06:29:22.036Z,0
2019-02-02T06:30:22.732Z,0
2019-02-02T06:31:23.296Z,0
2019-02-02T06:32:23.981Z,0
2019-02-02T06:33:25.113Z,0
2019-02-02T06:34:27.089Z,0
2019-02-02T06:35:27.053Z,0
2019-02-02T06:36:27.460Z,0
2019-02-02T06:37:27.590Z,0
2019-02-02T06:38:29.317Z,0
2019-02-02T06:39:30.409Z,0
2019-02-02T06:40:31.180Z,0
2019-02-02T06:41:31.013Z,0
2019-02-02T06:42:31.979Z,0
2019-02-02T06:43:33.088Z,0
2019-02-02T06:44:33.776Z,0
2019-02-02T06:45:34.466Z,0
2019-02-02T06:46:47.043Z,0
2019-02-02T06:47:47.708Z,0
2019-02-02T06:48:48.396Z,0
2019-02-02T06:49:49.090Z,0
2019-02-02T06:50:49.069Z,0
2019-02-02T06:51:49.478Z,0
2019-02-02T06:52:50.722Z,0
2019-02-02T06:53:50.691Z,0
2019-02-02T06:54:51.377Z,0
2019-02-02T06:55:51.515Z,0
2019-02-02T06:56:51.931Z,0
2019-02-02T06:57:53.020Z,0
2019-02-02T06:58:53.816Z,0
2019-02-02T06:59:53.950Z,0
2019-02-02T07:00:54.924Z,0
2019-02-02T07:01:55.064Z,0
2019-02-02T07:02:56.758Z,0
2019-02-02T07:03:57.163Z,0
2019-02-02T07:04:57.295Z,0
2019-02-02T07:05:58.547Z,0
2019-02-02T07:06:58.679Z,0
2019-02-02T07:07:59.253Z,5.63
2019-02-02T07:08:59.660Z,5.63
2019-02-02T07:09:59.791Z,5.63
2019-02-02T07:11:00.921Z,5.63
2019-02-02T07:12:01.718Z,5.63
2019-02-02T07:13:02.962Z,5.63
2019-02-02T07:14:02.925Z,5.63
2019-02-02T07:15:03.999Z,5.63
2019-02-02T07:16:04.967Z,11.25
2019-02-02T07:17:05.104Z,11.25
2019-02-02T07:18:06.497Z,11.25
2019-02-02T07:19:06.656Z,11.25
2019-02-02T07:20:07.344Z,11.25
2019-02-02T07:21:08.038Z,11.25
2019-02-02T07:22:09.173Z,11.25
2019-02-02T07:23:10.583Z,11.25
2019-02-02T07:24:12.101Z,11.25
2019-02-02T07:25:13.194Z,11.25
2019-02-02T07:26:12.607Z,11.25
2019-02-02T07:27:13.573Z,11.25
2019-02-02T07:28:13.701Z,11.25
2019-02-02T07:29:15.121Z,16.88
2019-02-02T07:30:26.841Z,16.88
2019-02-02T07:30:31.980Z,16.88
2019-02-02T07:31:28.829Z,16.88
2019-02-02T07:32:29.813Z,16.88
2019-02-02T07:33:31.064Z,16.88
2019-02-02T07:34:31.321Z,16.88
2019-02-02T07:35:31.431Z,11.25
2019-02-02T07:36:31.865Z,11.25
2019-02-02T07:37:32.556Z,11.25
2019-02-02T07:38:33.242Z,11.25
2019-02-02T07:39:34.488Z,11.25
2019-02-02T07:40:35.013Z,11.25
2019-02-02T07:41:35.111Z,11.25
2019-02-02T07:42:35.634Z,11.25
2019-02-02T07:43:37.343Z,11.25
2019-02-02T07:44:37.477Z,11.25
2019-02-02T07:45:38.609Z,11.25
2019-02-02T07:46:40.299Z,11.25
2019-02-02T07:47:41.093Z,11.25
2019-02-02T07:48:41.237Z,11.25
2019-02-02T07:49:42.212Z,11.25
2019-02-02T07:50:42.620Z,11.25
2019-02-02T07:51:43.461Z,11.25
2019-02-02T07:52:44.871Z,11.25
2019-02-02T07:53:46.118Z,11.25
2019-02-02T07:54:45.941Z,11.25
2019-02-02T07:55:46.234Z,11.25
2019-02-02T07:56:46.650Z,16.88
2019-02-02T07:57:48.339Z,16.88
2019-02-02T07:58:48.751Z,16.88
2019-02-02T07:59:49.167Z,16.88
2019-02-02T08:00:50.130Z,22.5
2019-02-02T08:01:50.369Z,22.5
2019-02-02T08:02:51.060Z,22.5
2019-02-02T08:03:51.477Z,22.5
2019-02-02T08:04:51.885Z,22.5
2019-02-02T08:05:52.854Z,22.5
2019-02-02T08:06:53.544Z,22.5
2019-02-02T08:07:53.677Z,28.13
2019-02-02T08:08:54.645Z,28.13
2019-02-02T08:09:55.335Z,28.13
2019-02-02T08:10:57.957Z,33.75
2019-02-02T08:11:58.195Z,39.38
2019-02-02T08:12:58.693Z,45
2019-02-02T08:13:59.415Z,50.63
2019-02-02T08:14:59.825Z,56.25
2019-02-02T08:15:59.956Z,67.5
2019-02-02T08:17:00.682Z,73.13
2019-02-02T08:18:01.649Z,73.13
2019-02-02T08:19:02.335Z,61.88
2019-02-02T08:20:03.634Z,56.25
2019-02-02T08:21:02.782Z,50.63
2019-02-02T08:22:04.202Z,50.63
2019-02-02T08:23:04.618Z,50.63
2019-02-02T08:24:05.309Z,45
2019-02-02T08:25:06.838Z,45
2019-02-02T08:26:06.252Z,39.38
2019-02-02T08:27:06.999Z,39.38
2019-02-02T08:28:07.714Z,45
2019-02-02T08:29:08.397Z,45
2019-02-02T08:30:08.916Z,45
2019-02-02T08:31:09.883Z,45
2019-02-02T08:32:09.608Z,45
2019-02-02T08:33:10.584Z,45
2019-02-02T08:34:10.723Z,45
2019-02-02T08:35:12.423Z,50.63
2019-02-02T08:36:13.387Z,56.25
2019-02-02T08:37:14.078Z,61.88
2019-02-02T08:38:14.561Z,67.5
2019-02-02T08:39:15.538Z,73.13
2019-02-02T08:40:15.842Z,73.13
2019-02-02T08:41:16.645Z,78.75
2019-02-02T08:42:16.652Z,78.75
2019-02-02T08:43:17.620Z,84.38
2019-02-02T08:44:18.601Z,90
2019-02-02T08:45:19.929Z,90
2019-02-02T08:46:19.065Z,106.88
2019-02-02T08:47:20.479Z,112.5
2019-02-02T08:48:21.892Z,118.13
2019-02-02T08:49:22.877Z,135
2019-02-02T08:50:23.594Z,151.88
2019-02-02T08:51:24.281Z,168.75
2019-02-02T08:52:24.817Z,180
2019-02-02T08:53:26.276Z,180
2019-02-02T08:54:26.249Z,163.13
2019-02-02T08:55:26.610Z,151.88
2019-02-02T08:56:28.021Z,146.25
2019-02-02T08:57:27.881Z,146.25
2019-02-02T08:58:28.862Z,157.5
2019-02-02T08:59:30.192Z,168.75
2019-02-02T09:00:29.610Z,168.75
2019-02-02T09:01:29.747Z,163.13
2019-02-02T09:02:31.425Z,163.13
2019-02-02T09:03:31.698Z,163.13
2019-02-02T09:04:33.149Z,168.75
2019-02-02T09:05:34.195Z,168.75
2019-02-02T09:06:48.060Z,174.38
2019-02-02T09:07:49.183Z,185.63
2019-02-02T09:08:49.868Z,191.25
2019-02-02T09:09:50.562Z,196.88
2019-02-02T09:10:51.256Z,202.5
2019-02-02T09:11:51.953Z,202.5
2019-02-02T09:12:52.775Z,208.13
2019-02-02T09:13:54.026Z,219.38
2019-02-02T09:14:53.997Z,208.13
2019-02-02T09:15:54.698Z,202.5
2019-02-02T09:16:55.684Z,196.88
2019-02-02T09:17:56.499Z,180
2019-02-02T09:18:57.191Z,163.13
2019-02-02T09:19:57.604Z,163.13
2019-02-02T09:20:58.020Z,163.13
2019-02-02T09:21:59.328Z,163.13
2019-02-02T09:23:12.060Z,163.13
2019-02-02T09:24:13.455Z,163.13
2019-02-02T09:25:13.858Z,163.13
2019-02-02T09:26:14.842Z,163.13
2019-02-02T09:27:14.630Z,168.75
2019-02-02T09:28:15.046Z,168.75
2019-02-02T09:29:15.461Z,168.75
2019-02-02T09:30:18.090Z,168.75
2019-02-02T09:31:18.785Z,174.38
2019-02-02T09:32:19.218Z,168.75
2019-02-02T09:33:20.970Z,168.75
2019-02-02T09:34:21.945Z,174.38
2019-02-02T09:35:22.919Z,180
2019-02-02T09:36:22.889Z,185.63
2019-02-02T09:37:24.071Z,191.25
2019-02-02T09:38:24.776Z,196.88
2019-02-02T09:39:25.753Z,196.88
2019-02-02T09:40:28.105Z,202.5
2019-02-02T09:41:28.517Z,191.25
2019-02-02T09:42:29.889Z,174.38
2019-02-02T09:43:30.608Z,163.13
2019-02-02T09:44:31.739Z,151.88
2019-02-02T09:45:32.824Z,146.25
2019-02-02T09:46:33.257Z,140.63
2019-02-02T09:47:33.390Z,146.25
2019-02-02T09:48:35.644Z,146.25
2019-02-02T09:49:34.779Z,151.88
2019-02-02T09:50:35.922Z,163.13
2019-02-02T09:51:36.890Z,174.38
2019-02-02T09:52:37.304Z,185.63
2019-02-02T09:53:38.001Z,208.13
2019-02-02T09:54:38.493Z,230.63
2019-02-02T09:55:38.908Z,236.25
2019-02-02T09:56:41.985Z,236.25
2019-02-02T09:57:42.019Z,230.63
2019-02-02T09:58:42.989Z,225
2019-02-02T09:59:43.679Z,219.38
2019-02-02T10:00:44.646Z,219.38
2019-02-02T10:01:44.787Z,219.38
2019-02-02T10:02:48.752Z,230.63
2019-02-02T10:03:49.444Z,247.5
2019-02-02T10:04:50.632Z,270
2019-02-02T10:05:51.101Z,298.13
2019-02-02T10:06:53.610Z,309.38
2019-02-02T10:07:53.583Z,303.75
2019-02-02T10:08:54.273Z,298.13
2019-02-02T10:09:54.685Z,281.25
2019-02-02T10:10:55.657Z,247.5
2019-02-02T10:11:56.072Z,219.38
2019-02-02T10:12:57.700Z,202.5
2019-02-02T10:13:57.673Z,208.13
2019-02-02T10:14:58.218Z,225
2019-02-02T10:15:58.360Z,241.88
2019-02-02T10:16:59.064Z,281.25
2019-02-02T10:18:03.709Z,315
2019-02-02T10:19:16.797Z,365.63
2019-02-02T10:20:14.646Z,405
2019-02-02T10:21:15.066Z,450
2019-02-02T10:22:16.039Z,500.63
2019-02-02T10:23:16.452Z,545.63
2019-02-02T10:24:16.873Z,562.5
2019-02-02T10:25:18.616Z,455.63
2019-02-02T10:26:19.650Z,438.75
2019-02-02T10:27:20.062Z,478.13
2019-02-02T10:28:21.169Z,596.25
2019-02-02T10:29:21.440Z,652.5
2019-02-02T10:30:24.954Z,511.88
2019-02-02T10:31:26.211Z,410.63
2019-02-02T10:32:26.807Z,393.75
2019-02-02T10:33:27.774Z,421.88
2019-02-02T10:34:28.741Z,466.88
2019-02-02T10:35:29.233Z,506.25
2019-02-02T10:36:29.654Z,450
2019-02-02T10:37:30.349Z,433.13
2019-02-02T10:38:30.871Z,511.88
2019-02-02T10:39:31.564Z,618.75
2019-02-02T10:40:32.923Z,635.63
2019-02-02T10:41:33.687Z,590.63
2019-02-02T10:42:34.100Z,556.88
2019-02-02T10:43:35.351Z,472.5
2019-02-02T10:44:36.060Z,427.5
2019-02-02T10:45:36.798Z,421.88
2019-02-02T10:46:37.491Z,416.25
2019-02-02T10:47:37.909Z,416.25
2019-02-02T10:48:38.615Z,410.63
2019-02-02T10:49:39.863Z,365.63
2019-02-02T10:50:39.709Z,320.63
2019-02-02T10:51:41.681Z,298.13
2019-02-02T10:52:41.378Z,275.63
2019-02-02T10:53:42.345Z,286.88
2019-02-02T10:54:42.483Z,286.88
2019-02-02T10:55:43.895Z,264.38
2019-02-02T10:56:47.274Z,247.5
2019-02-02T10:57:45.904Z,236.25
2019-02-02T10:58:46.597Z,219.38
2019-02-02T10:59:50.248Z,213.75
2019-02-02T11:00:48.638Z,225
2019-02-02T11:01:53.102Z,236.25
2019-02-02T11:02:54.920Z,219.38
2019-02-02T11:03:55.167Z,191.25
2019-02-02T11:04:57.294Z,168.75
2019-02-02T11:05:57.861Z,157.5
2019-02-02T11:06:58.623Z,157.5
2019-02-02T11:07:59.237Z,157.5
2019-02-02T11:09:00.070Z,163.13
2019-02-02T11:10:00.732Z,174.38
2019-02-02T11:11:01.970Z,180
2019-02-02T11:12:01.630Z,180
2019-02-02T11:13:03.445Z,180
2019-02-02T11:14:05.692Z,168.75
2019-02-02T11:15:05.994Z,163.13
2019-02-02T11:16:09.552Z,157.5
2019-02-02T11:17:06.865Z,157.5
2019-02-02T11:18:06.476Z,168.75
2019-02-02T11:19:08.440Z,168.75
2019-02-02T11:20:10.594Z,174.38
2019-02-02T11:21:11.341Z,174.38
2019-02-02T11:22:10.891Z,174.38
2019-02-02T11:23:12.467Z,174.38
2019-02-02T11:24:13.020Z,174.38
2019-02-02T11:25:13.255Z,180
2019-02-02T11:26:13.978Z,191.25
2019-02-02T11:27:15.962Z,202.5
2019-02-02T11:28:19.048Z,213.75
2019-02-02T11:29:17.776Z,230.63
2019-02-02T11:30:18.122Z,241.88
2019-02-02T11:31:18.411Z,258.75
2019-02-02T11:32:19.115Z,270
2019-02-02T11:33:19.810Z,270
2019-02-02T11:34:19.785Z,281.25
2019-02-02T11:35:20.478Z,298.13
2019-02-02T11:36:21.249Z,315
2019-02-02T11:37:21.782Z,320.63
2019-02-02T11:38:22.197Z,337.5
2019-02-02T11:39:23.173Z,360
2019-02-02T11:40:23.884Z,371.25
2019-02-02T11:41:25.673Z,365.63
2019-02-02T11:42:25.809Z,337.5
2019-02-02T11:43:26.948Z,320.63
2019-02-02T11:44:27.928Z,320.63
2019-02-02T11:45:28.664Z,326.25
2019-02-02T11:46:29.358Z,337.5
2019-02-02T11:47:30.071Z,348.75
2019-02-02T11:48:30.775Z,348.75
2019-02-02T11:49:31.467Z,354.38
2019-02-02T11:50:32.164Z,365.63
2019-02-02T11:51:32.261Z,371.25
2019-02-02T11:52:32.957Z,371.25
2019-02-02T11:53:33.096Z,360
2019-02-02T11:54:34.240Z,343.13
2019-02-02T11:55:34.936Z,326.25
2019-02-02T11:56:36.035Z,326.25
2019-02-02T11:57:37.298Z,320.63
2019-02-02T11:58:36.990Z,337.5
2019-02-02T11:59:37.779Z,326.25
2019-02-02T12:00:38.827Z,326.25
2019-02-02T12:01:39.058Z,320.63
2019-02-02T12:02:51.665Z,315
2019-02-02T12:03:52.455Z,315
2019-02-02T12:04:52.867Z,320.63
2019-02-02T12:05:53.287Z,331.88
2019-02-02T12:06:53.837Z,331.88
2019-02-02T12:07:54.257Z,331.88
2019-02-02T12:08:55.234Z,337.5
2019-02-02T12:09:55.374Z,343.13
2019-02-02T12:10:56.252Z,354.38
2019-02-02T12:11:57.892Z,360
2019-02-02T12:12:57.863Z,354.38
2019-02-02T12:13:58.148Z,337.5
2019-02-02T12:14:58.931Z,320.63
2019-02-02T12:15:59.899Z,315
2019-02-02T12:17:00.594Z,320.63
2019-02-02T12:18:00.733Z,348.75
2019-02-02T12:19:02.703Z,371.25
2019-02-02T12:20:03.418Z,416.25
2019-02-02T12:21:03.836Z,461.25
2019-02-02T12:22:04.817Z,495
2019-02-02T12:23:05.365Z,506.25
2019-02-02T12:24:18.265Z,478.13
2019-02-02T12:25:19.095Z,455.63
2019-02-02T12:26:19.783Z,438.75
2019-02-02T12:27:20.767Z,421.88
2019-02-02T12:28:21.188Z,416.25
2019-02-02T12:29:21.328Z,388.13
2019-02-02T12:30:22.547Z,376.88
2019-02-02T12:31:23.252Z,376.88
2019-02-02T12:32:29.264Z,360
2019-02-02T12:32:36.773Z,360
2019-02-02T12:33:37.456Z,360
2019-02-02T12:34:37.875Z,360
2019-02-02T12:35:38.569Z,360
2019-02-02T12:36:40.259Z,354.38
2019-02-02T12:37:41.553Z,360
2019-02-02T12:38:41.251Z,360
2019-02-02T12:39:43.234Z,365.63
2019-02-02T12:40:44.331Z,371.25
2019-02-02T12:41:45.145Z,382.5
2019-02-02T12:42:45.838Z,388.13
2019-02-02T12:43:46.218Z,388.13
2019-02-02T12:44:47.984Z,388.13
2019-02-02T12:46:07.405Z,388.13
2019-02-02T12:46:16.375Z,382.5
2019-02-02T12:47:13.397Z,382.5
2019-02-02T12:48:13.538Z,376.88
2019-02-02T12:49:15.069Z,365.63
2019-02-02T12:50:14.615Z,348.75
2019-02-02T12:51:15.056Z,343.13
2019-02-02T12:52:16.748Z,337.5
2019-02-02T12:53:17.453Z,326.25
2019-02-02T12:54:18.141Z,320.63
2019-02-02T12:55:19.111Z,320.63
2019-02-02T12:56:19.314Z,315
2019-02-02T12:57:19.705Z,309.38
2019-02-02T12:58:20.986Z,309.38
2019-02-02T12:59:21.684Z,309.38
2019-02-02T13:00:22.775Z,309.38
2019-02-02T13:01:22.912Z,309.38
2019-02-02T13:02:40.244Z,309.38
2019-02-02T13:03:37.407Z,309.38
2019-02-02T13:04:38.101Z,309.38
2019-02-02T13:05:41.626Z,315
2019-02-02T13:06:42.050Z,309.38
2019-02-02T13:07:42.958Z,315
2019-02-02T13:08:43.097Z,315
2019-02-02T13:09:44.866Z,303.75
2019-02-02T13:10:45.840Z,303.75
2019-02-02T13:11:46.208Z,303.75
2019-02-02T13:12:46.635Z,298.13
2019-02-02T13:13:48.042Z,292.5
2019-02-02T13:14:48.180Z,292.5
2019-02-02T13:15:49.596Z,286.88
2019-02-02T13:16:52.414Z,286.88
2019-02-02T13:17:54.226Z,281.25
2019-02-02T13:18:54.326Z,281.25
2019-02-02T13:19:54.130Z,286.88
2019-02-02T13:20:54.559Z,286.88
2019-02-02T13:21:55.299Z,286.88
2019-02-02T13:22:55.993Z,286.88
2019-02-02T13:23:56.552Z,281.25
2019-02-02T13:24:57.640Z,281.25
2019-02-02T13:26:11.974Z,281.25
2019-02-02T13:27:12.091Z,275.63
2019-02-02T13:28:12.634Z,270
2019-02-02T13:29:13.048Z,270
2019-02-02T13:30:13.740Z,270
2019-02-02T13:31:14.439Z,270
2019-02-02T13:32:15.256Z,270
2019-02-02T13:33:16.258Z,264.38
2019-02-02T13:34:16.686Z,264.38
2019-02-02T13:35:18.668Z,264.38
2019-02-02T13:36:19.363Z,258.75
2019-02-02T13:37:19.630Z,253.13
2019-02-02T13:38:20.609Z,247.5
2019-02-02T13:39:21.026Z,241.88
2019-02-02T13:40:21.447Z,241.88
2019-02-02T13:41:22.702Z,236.25
2019-02-02T13:42:22.951Z,236.25
2019-02-02T13:43:23.201Z,236.25
2019-02-02T13:44:24.173Z,236.25
2019-02-02T13:45:24.595Z,236.25
2019-02-02T13:46:25.292Z,236.25
2019-02-02T13:47:26.122Z,236.25
2019-02-02T13:48:27.094Z,236.25
2019-02-02T13:49:27.582Z,230.63
2019-02-02T13:50:28.526Z,230.63
2019-02-02T13:51:33.134Z,230.63
2019-02-02T13:52:30.127Z,230.63
2019-02-02T13:53:29.819Z,230.63
2019-02-02T13:54:30.362Z,236.25
2019-02-02T13:55:31.054Z,241.88